Time;durP1;ratioP1;P1;durP2;ratioP2;P2;SDS_P1;SDS_P2;PMS_P1;PMS_P2;Temp;Humidity;BMP_temperature;BMP_pressure;BME280_temperature;BME280_humidity;BME280_pressure;Samples;Min_cycle;Max_cycle;Signal;HPM_P1;HPM_P2
2023/03/14 00:02:20;;;;;;;16.67;1.98;;;;;;;6.80;49.65;98611.56;5055102;28;20032;-70
2023/03/14 00:04:45;;;;;;;17.77;2.30;;;;;;;7.29;48.67;98613.75;5051211;28;20072;-69
2023/03/14 00:07:12;;;;;;;20.02;3.40;;;;;;;6.59;50.36;98612.84;5054588;28;20039;-70
2023/03/14 00:09:38;;;;;;;19.55;2.75;;;;;;;6.61;50.22;98623.97;5052311;28;20047;-68
2023/03/14 00:12:07;;;;;;;20.80;2.55;;;;;;;6.94;49.80;98628.09;5055439;28;20043;-69
2023/03/14 00:14:33;;;;;;;12.48;3.10;;;;;;;7.06;49.19;98627.31;5054583;28;20032;-71
2023/03/14 00:16:58;;;;;;;21.52;2.22;;;;;;;7.24;48.92;98623.56;5055114;28;20024;-70
2023/03/14 00:19:24;;;;;;;17.25;1.85;;;;;;;6.99;49.51;98610.44;5053821;28;20072;-69
2023/03/14 00:21:49;;;;;;;15.80;2.47;;;;;;;6.43;50.56;98603.38;5054079;28;20047;-69
2023/03/14 00:24:15;;;;;;;20.25;1.58;;;;;;;6.93;49.79;98601.25;5054148;28;20135;-68
2023/03/14 00:26:43;;;;;;;8.55;1.42;;;;;;;6.65;50.22;98586.53;5054974;28;20045;-69
2023/03/14 00:29:08;;;;;;;9.95;1.85;;;;;;;6.64;50.59;98577.06;5054619;28;20040;-70
2023/03/14 00:31:35;;;;;;;17.55;2.10;;;;;;;6.62;50.47;98581.50;5054817;28;20032;-70
2023/03/14 00:34:01;;;;;;;13.32;1.95;;;;;;;6.91;49.58;98578.00;5053838;28;20032;-69
2023/03/14 00:36:27;;;;;;;17.05;1.55;;;;;;;6.57;50.58;98575.75;5053895;28;20039;-69
2023/03/14 00:38:53;;;;;;;18.00;2.10;;;;;;;7.00;49.31;98579.19;5051740;28;20639;-70
2023/03/14 00:41:22;;;;;;;16.58;2.05;;;;;;;6.55;50.43;98588.00;5054124;28;20032;-71
2023/03/14 00:43:48;;;;;;;23.38;2.95;;;;;;;6.52;50.44;98581.22;5052959;28;20481;-71
2023/03/14 00:46:14;;;;;;;13.65;1.85;;;;;;;6.60;50.45;98591.19;5052613;28;20056;-71
2023/03/14 00:48:40;;;;;;;18.35;2.10;;;;;;;7.07;49.75;98582.25;5055624;28;20177;-70
2023/03/14 00:51:08;;;;;;;20.17;3.53;;;;;;;6.98;49.87;98590.63;5052209;28;20036;-71
2023/03/14 00:53:38;;;;;;;20.27;2.95;;;;;;;6.69;50.70;98598.41;5047487;28;20032;-70
2023/03/14 00:56:07;;;;;;;22.25;3.00;;;;;;;7.28;49.06;98586.09;5053835;28;20040;-72
2023/03/14 00:58:33;;;;;;;18.98;1.95;;;;;;;6.66;50.38;98589.03;5036831;28;20062;-71
2023/03/14 01:00:58;;;;;;;14.18;1.85;;;;;;;7.07;49.97;98597.84;5053000;28;20143;-72
2023/03/14 01:03:24;;;;;;;20.38;2.55;;;;;;;6.54;50.87;98579.38;5037334;28;20067;-71
2023/03/14 01:05:50;;;;;;;12.68;2.40;;;;;;;7.32;49.27;98589.34;5035295;28;20047;-67
2023/03/14 01:08:18;;;;;;;14.07;2.58;;;;;;;6.60;50.91;98570.41;5053746;28;20038;-70
2023/03/14 01:10:43;;;;;;;21.48;2.42;;;;;;;6.82;50.44;98568.19;5043915;28;20048;-69
2023/03/14 01:13:11;;;;;;;8.77;1.25;;;;;;;7.01;49.57;98551.44;5054235;28;20058;-70
2023/03/14 01:15:37;;;;;;;14.32;2.40;;;;;;;7.24;48.96;98550.81;5052668;28;20051;-71
2023/03/14 01:18:03;;;;;;;13.98;1.52;;;;;;;7.36;49.11;98548.41;5054762;28;20032;-71
2023/03/14 01:20:29;;;;;;;11.20;1.17;;;;;;;7.69;48.10;98556.66;5037380;28;20028;-70
2023/03/14 01:22:58;;;;;;;11.68;2.05;;;;;;;7.35;48.99;98549.31;5053723;28;20027;-70
2023/03/14 01:25:23;;;;;;;15.05;2.83;;;;;;;7.56;48.53;98555.78;5042859;28;20512;-69
2023/03/14 01:27:49;;;;;;;13.40;1.80;;;;;;;7.35;49.20;98541.53;5054426;28;20029;-68
2023/03/14 01:30:14;;;;;;;18.33;2.13;;;;;;;7.86;47.56;98542.53;5036629;28;21049;-73
2023/03/14 01:32:40;;;;;;;24.67;2.42;;;;;;;7.57;48.43;98541.84;5058948;28;20078;-75
2023/03/14 01:35:06;;;;;;;14.18;1.50;;;;;;;7.05;49.98;98543.38;5040881;28;20523;-74
2023/03/14 01:37:32;;;;;;;11.30;1.33;;;;;;;7.53;48.65;98537.75;5043765;28;20492;-74
2023/03/14 01:39:58;;;;;;;15.82;2.17;;;;;;;7.47;48.81;98549.38;5045947;28;20057;-73
2023/03/14 01:42:24;;;;;;;11.07;1.10;;;;;;;7.31;49.16;98556.47;5040968;28;20028;-72
2023/03/14 01:44:55;;;;;;;14.57;2.17;;;;;;;7.46;49.01;98521.72;5043640;28;20420;-72
2023/03/14 01:47:22;;;;;;;14.23;1.88;;;;;;;8.04;47.99;98527.50;5046307;28;20033;-72
2023/03/14 01:50:01;;;;;;;11.85;1.85;;;;;;;7.76;48.17;98530.25;5040525;28;20041;-72
2023/03/14 01:52:35;;;;;;;18.27;1.98;;;;;;;7.56;49.09;98518.53;5054967;28;20028;-69
2023/03/14 01:55:06;;;;;;;14.07;2.72;;;;;;;7.79;48.69;98533.50;5052427;28;20036;-74
2023/03/14 01:57:35;;;;;;;;;;;;;;;7.73;48.74;98529.53;5045986;28;20079;-74
2023/03/14 02:00:13;;;;;;;15.77;1.83;;;;;;;7.78;48.55;98525.78;5050654;28;19924;-74
2023/03/14 02:03:05;;;;;;;11.18;0.93;;;;;;;8.03;48.43;98520.63;5054613;28;20048;-73
2023/03/14 02:05:36;;;;;;;10.77;2.33;;;;;;;7.27;50.27;98519.47;5046932;28;20093;-74
2023/03/14 02:08:13;;;;;;;11.93;2.03;;;;;;;8.06;48.88;98524.78;5049017;28;20035;-73
2023/03/14 02:10:50;;;;;;;12.52;1.80;;;;;;;7.65;50.12;98521.41;5048027;28;20044;-72
2023/03/14 02:13:21;;;;;;;23.45;3.53;;;;;;;7.31;51.52;98512.31;5041788;28;20028;-73
2023/03/14 02:16:12;;;;;;;10.88;1.58;;;;;;;7.44;51.07;98527.94;5029420;28;20040;-74
2023/03/14 02:18:57;;;;;;;8.57;1.88;;;;;;;8.56;48.87;98512.69;5055078;28;20067;-73
2023/03/14 02:22:09;;;;;;;6.35;1.25;;;;;;;8.04;50.74;98519.69;5039173;28;20032;-73
2023/03/14 02:25:28;;;;;;;10.45;2.10;;;;;;;8.04;50.77;98517.09;5047296;28;20060;-74
2023/03/14 02:27:54;;;;;;;10.70;1.70;;;;;;;8.07;51.13;98516.91;5041768;28;20032;-73
2023/03/14 02:30:23;;;;;;;6.97;1.00;;;;;;;7.99;51.42;98510.53;5045299;28;20075;-74
2023/03/14 02:32:54;;;;;;;7.50;1.70;;;;;;;7.43;53.01;98518.50;5039680;28;20494;-74
2023/03/14 02:35:23;;;;;;;7.45;1.50;;;;;;;8.11;51.52;98509.69;5037546;28;20028;-70
2023/03/14 02:37:56;;;;;;;10.60;1.65;;;;;;;7.93;51.80;98507.38;5048311;28;20062;-67
2023/03/14 02:40:23;;;;;;;8.70;1.38;;;;;;;7.79;52.31;98501.47;5028626;28;20032;-66
2023/03/14 02:42:51;;;;;;;7.72;1.42;;;;;;;7.46;53.56;98503.53;5046778;28;20487;-64
2023/03/14 02:45:17;;;;;;;6.00;1.50;;;;;;;7.82;52.49;98498.66;5053799;28;20040;-65
2023/03/14 02:47:49;;;;;;;7.80;1.00;;;;;;;7.71;52.99;98500.19;5044712;28;20047;-67
2023/03/14 02:50:19;;;;;;;5.32;1.08;;;;;;;6.99;55.29;98507.38;5036621;28;20041;-65
2023/03/14 02:52:45;;;;;;;5.80;1.35;;;;;;;7.56;53.97;98501.22;5048347;28;20489;-65
2023/03/14 02:55:10;;;;;;;7.53;1.88;;;;;;;7.11;54.59;98500.59;5054555;28;20046;-66
2023/03/14 02:57:38;;;;;;;6.13;1.63;;;;;;;7.41;54.06;98496.97;5042864;28;20024;-67
2023/03/14 03:00:05;;;;;;;4.28;1.15;;;;;;;7.57;53.74;98496.84;5053967;28;20106;-66
2023/03/14 03:02:34;;;;;;;7.50;1.58;;;;;;;7.27;54.48;98496.09;5046205;28;20336;-66
2023/03/14 03:04:59;;;;;;;16.60;1.75;;;;;;;7.17;54.52;98484.59;5039245;28;20051;-66
2023/03/14 03:07:25;;;;;;;8.82;1.55;;;;;;;7.04;55.03;98484.56;5037460;28;20342;-67
2023/03/14 03:09:51;;;;;;;11.32;1.65;;;;;;;7.46;53.83;98494.91;5038509;28;20879;-66
2023/03/14 03:12:17;;;;;;;8.63;2.25;;;;;;;7.38;53.90;98486.75;5046039;28;20039;-66
2023/03/14 03:14:43;;;;;;;8.25;1.60;;;;;;;7.47;54.21;98486.19;5040843;28;20044;-67
2023/03/14 03:17:09;;;;;;;5.30;0.93;;;;;;;6.83;55.92;98486.75;5044932;28;20161;-68
2023/03/14 03:19:34;;;;;;;6.65;1.70;;;;;;;6.86;55.62;98491.75;5041674;28;20127;-65
2023/03/14 03:22:00;;;;;;;10.90;1.77;;;;;;;7.00;54.73;98497.81;5041194;28;20025;-67
2023/03/14 03:24:26;;;;;;;6.00;2.15;;;;;;;7.13;53.44;98485.72;5055051;28;20044;-71
2023/03/14 03:26:51;;;;;;;8.90;1.33;;;;;;;6.80;54.24;98501.69;5054791;28;20052;-72
2023/03/14 03:29:17;;;;;;;7.03;1.80;;;;;;;6.88;53.26;98505.47;5054564;28;20415;-67
2023/03/14 03:31:47;;;;;;;13.27;1.75;;;;;;;7.38;52.21;98494.53;5043951;28;20252;-67
2023/03/14 03:34:13;;;;;;;5.13;0.75;;;;;;;6.95;53.08;98489.50;5043490;28;20037;-67
2023/03/14 03:36:40;;;;;;;8.45;1.92;;;;;;;7.05;53.50;98493.19;5046419;28;20661;-67
2023/03/14 03:39:05;;;;;;;11.90;1.90;;;;;;;7.02;52.84;98493.38;5054620;28;20027;-66
2023/03/14 03:41:32;;;;;;;11.48;2.25;;;;;;;7.39;51.95;98478.03;5046952;28;20305;-66
2023/03/14 03:43:58;;;;;;;7.85;1.77;;;;;;;6.63;53.52;98479.38;5041591;28;20035;-66
2023/03/14 03:46:24;;;;;;;5.43;1.30;;;;;;;7.21;51.93;98475.69;5043828;28;20398;-67
2023/03/14 03:48:59;;;;;;;8.40;2.47;;;;;;;7.26;51.66;98489.22;5046194;28;20528;-67
2023/03/14 03:51:26;;;;;;;5.07;0.60;;;;;;;6.91;52.49;98488.88;5044874;28;20543;-67
2023/03/14 03:53:51;;;;;;;9.02;1.08;;;;;;;6.63;53.69;98481.97;5052837;28;20036;-67
2023/03/14 03:56:24;;;;;;;17.23;2.17;;;;;;;6.94;52.83;98475.69;5044888;28;20405;-67
2023/03/14 03:58:49;;;;;;;9.05;1.65;;;;;;;7.31;51.47;98468.97;5053771;28;20052;-67
2023/03/14 04:01:16;;;;;;;3.92;0.63;;;;;;;6.91;52.64;98474.13;5052639;28;20036;-68
2023/03/14 04:03:44;;;;;;;8.25;0.73;;;;;;;6.97;52.47;98472.06;5041636;28;20043;-68
2023/03/14 04:06:12;;;;;;;7.15;0.82;;;;;;;6.64;53.02;98478.44;5052981;28;20906;-67
2023/03/14 04:08:43;;;;;;;14.45;2.67;;;;;;;7.10;51.80;98478.16;5040090;28;20067;-67
2023/03/14 04:11:13;;;;;;;6.03;1.20;;;;;;;6.94;52.35;98482.66;5045349;28;20127;-67
2023/03/14 04:14:01;;;;;;;11.50;1.42;;;;;;;6.50;53.40;98468.91;5041327;28;20036;-68
2023/03/14 04:16:28;;;;;;;3.80;0.45;;;;;;;6.92;52.04;98490.53;5039369;28;20039;-67
2023/03/14 04:19:02;;;;;;;4.20;0.63;;;;;;;6.49;53.16;98483.66;5056386;28;20052;-67
2023/03/14 04:21:29;;;;;;;6.65;1.13;;;;;;;6.86;52.49;98477.94;5040771;28;20652;-67
2023/03/14 04:23:56;;;;;;;3.00;0.50;;;;;;;6.72;52.95;98483.97;5035544;28;20628;-67
2023/03/14 04:26:23;;;;;;;2.67;0.95;;;;;;;6.14;54.60;98466.75;5043933;28;20033;-68
2023/03/14 04:28:48;;;;;;;10.25;0.90;;;;;;;6.70;53.86;98480.66;5040736;28;20090;-68
2023/03/14 04:31:20;;;;;;;5.32;0.93;;;;;;;6.82;54.34;98490.28;5052838;28;20155;-67
2023/03/14 04:33:47;;;;;;;11.07;1.52;;;;;;;6.76;54.70;98482.88;5044449;28;20032;-71
2023/03/14 04:36:15;;;;;;;6.30;1.02;;;;;;;6.38;55.42;98470.50;5043242;28;20094;-72
2023/03/14 04:38:41;;;;;;;6.53;1.33;;;;;;;6.37;56.05;98476.59;5045074;28;20570;-71
2023/03/14 04:41:08;;;;;;;8.38;1.25;;;;;;;6.43;56.21;98478.81;5044819;28;20147;-71
2023/03/14 04:43:35;;;;;;;8.95;2.53;;;;;;;5.97;57.83;98481.56;5053161;28;20042;-69
2023/03/14 04:46:06;;;;;;;10.38;1.40;;;;;;;6.00;58.24;98478.78;5039245;28;20043;-69
2023/03/14 04:48:32;;;;;;;9.57;2.58;;;;;;;5.76;59.58;98478.47;5032738;28;20736;-71
2023/03/14 04:50:58;;;;;;;9.63;2.63;;;;;;;5.83;59.23;98469.38;5041085;28;20063;-68
2023/03/14 04:53:25;;;;;;;12.45;1.73;;;;;;;5.69;60.03;98477.16;5020984;28;20952;-69
2023/03/14 04:55:55;;;;;;;14.68;3.90;;;;;;;6.22;58.66;98480.09;5040687;28;20040;-66
2023/03/14 04:58:23;;;;;;;8.90;1.90;;;;;;;5.98;59.32;98475.44;5035827;28;20025;-66
2023/03/14 05:00:51;;;;;;;11.13;2.17;;;;;;;5.83;59.70;98458.19;5045708;28;20048;-67
2023/03/14 05:03:38;;;;;;;13.02;2.00;;;;;;;5.55;60.75;98466.75;5052488;28;21359;-66
2023/03/14 05:06:12;;;;;;;7.75;1.65;;;;;;;5.47;61.42;98467.19;5036313;28;20033;-66
2023/03/14 05:08:54;;;;;;;12.52;2.05;;;;;;;5.19;62.65;98478.25;5037548;28;20043;-65
2023/03/14 05:11:35;;;;;;;11.63;1.98;;;;;;;5.29;62.80;98470.81;5033793;28;20039;-67
2023/03/14 05:14:12;;;;;;;8.88;2.13;;;;;;;5.30;61.96;98469.88;5053312;28;20086;-67
2023/03/14 05:16:44;;;;;;;11.10;2.25;;;;;;;5.74;60.89;98474.28;5053858;28;20557;-67
2023/03/14 05:19:27;;;;;;;9.05;1.80;;;;;;;5.75;60.52;98461.25;5053264;28;20118;-69
2023/03/14 05:22:15;;;;;;;15.02;2.08;;;;;;;5.49;61.38;98454.97;5051496;28;20028;-68
2023/03/14 05:25:10;;;;;;;5.88;1.30;;;;;;;5.96;60.32;98455.72;5030159;28;20040;-70
2023/03/14 05:27:54;;;;;;;9.70;1.92;;;;;;;5.25;62.42;98452.84;5056358;28;20342;-72
2023/03/14 05:30:44;;;;;;;11.00;1.83;;;;;;;5.52;61.45;98464.31;5043996;28;20051;-71
2023/03/14 05:33:30;;;;;;;8.30;2.97;;;;;;;5.81;60.20;98449.66;5049602;28;20875;-71
2023/03/14 05:35:55;;;;;;;5.10;1.42;;;;;;;5.83;60.58;98447.81;5052577;28;20035;-70
2023/03/14 05:38:37;;;;;;;11.00;2.53;;;;;;;5.65;61.41;98455.75;5052168;28;20052;-68
2023/03/14 05:41:26;;;;;;;9.23;1.65;;;;;;;5.34;61.75;98448.91;5008746;28;20944;-69
2023/03/14 05:44:11;;;;;;;7.63;1.73;;;;;;;5.97;60.58;98460.81;5054698;28;20036;-68
2023/03/14 05:46:55;;;;;;;8.43;1.60;;;;;;;5.78;60.54;98440.31;5054888;28;20109;-66
2023/03/14 05:49:33;;;;;;;8.25;3.03;;;;;;;5.84;60.80;98454.69;5048547;28;20053;-65
2023/03/14 05:52:18;;;;;;;6.50;2.05;;;;;;;5.75;61.04;98450.03;5052438;28;20064;-66
2023/03/14 05:55:02;;;;;;;13.23;2.55;;;;;;;5.48;61.75;98453.31;5054469;28;20146;-70
2023/03/14 05:57:53;;;;;;;11.45;2.75;;;;;;;5.50;61.87;98453.22;5025058;28;20133;-71
2023/03/14 06:00:32;;;;;;;8.52;2.22;;;;;;;6.03;60.16;98455.25;5033212;28;20032;-72
2023/03/14 06:03:14;;;;;;;5.85;2.70;;;;;;;5.55;61.66;98451.22;5035890;28;20028;-69
2023/03/14 06:05:43;;;;;;;8.23;2.55;;;;;;;5.42;61.86;98435.53;5028210;28;20071;-68
2023/03/14 06:08:09;;;;;;;11.73;3.78;;;;;;;5.32;62.56;98436.97;5041973;28;20119;-68
2023/03/14 06:10:36;;;;;;;6.95;2.97;;;;;;;5.15;63.36;98445.72;5033805;28;21056;-70
2023/03/14 06:13:02;;;;;;;9.43;2.30;;;;;;;5.74;61.96;98440.59;5043773;28;20086;-66
2023/03/14 06:15:30;;;;;;;9.02;1.88;;;;;;;5.66;62.03;98436.69;4998747;28;20049;-68
2023/03/14 06:17:56;;;;;;;8.15;2.20;;;;;;;5.52;62.38;98436.66;5050503;28;20300;-70
2023/03/14 06:20:22;;;;;;;12.25;2.00;;;;;;;5.61;62.00;98435.28;5036414;28;20025;-68
2023/03/14 06:22:48;;;;;;;7.68;1.98;;;;;;;5.78;62.08;98439.50;5043104;28;20040;-69
2023/03/14 06:25:14;;;;;;;9.45;2.42;;;;;;;5.77;61.87;98445.59;5039751;28;20551;-70
2023/03/14 06:27:43;;;;;;;4.80;2.10;;;;;;;5.48;62.25;98442.97;5039521;28;20032;-70
2023/03/14 06:30:10;;;;;;;11.27;2.83;;;;;;;5.56;62.39;98447.69;5053719;28;20036;-69
2023/03/14 06:32:36;;;;;;;8.82;3.13;;;;;;;5.95;61.24;98443.66;5040676;28;20036;-69
2023/03/14 06:35:06;;;;;;;5.47;2.40;;;;;;;5.41;62.62;98449.38;5042047;28;20040;-68
2023/03/14 06:37:35;;;;;;;6.78;1.92;;;;;;;5.76;61.87;98452.53;5041708;28;20717;-67
2023/03/14 06:40:01;;;;;;;9.23;2.10;;;;;;;5.17;63.94;98449.06;5035326;28;20044;-68
2023/03/14 06:42:59;;;;;;;5.80;2.20;;;;;;;5.31;63.34;98450.84;5039788;28;20850;-69
2023/03/14 06:45:27;;;;;;;12.35;2.67;;;;;;;5.56;62.86;98445.91;5033219;28;20040;-70
2023/03/14 06:47:54;;;;;;;5.35;1.90;;;;;;;5.48;62.83;98450.72;5053625;28;20035;-67
2023/03/14 06:50:24;;;;;;;7.65;2.10;;;;;;;5.25;63.58;98460.63;5043776;28;20047;-65
2023/03/14 06:52:50;;;;;;;4.68;1.33;;;;;;;5.46;62.96;98468.13;5045311;28;20038;-66
2023/03/14 06:55:20;;;;;;;3.92;1.80;;;;;;;5.31;62.78;98461.22;5045834;28;20547;-64
2023/03/14 06:57:46;;;;;;;7.60;2.22;;;;;;;5.52;62.46;98470.34;5044954;28;20305;-66
2023/03/14 07:00:13;;;;;;;3.40;1.77;;;;;;;5.91;61.18;98475.91;5057222;28;20032;-66
2023/03/14 07:02:39;;;;;;;6.78;1.45;;;;;;;5.83;61.55;98479.75;5043231;28;20482;-66
2023/03/14 07:05:07;;;;;;;3.08;1.42;;;;;;;5.19;63.60;98486.88;5041341;28;20083;-65
2023/03/14 07:07:33;;;;;;;7.18;1.60;;;;;;;5.62;61.93;98492.22;5045509;28;20032;-66
2023/03/14 07:09:59;;;;;;;7.88;2.13;;;;;;;5.35;62.97;98493.81;5051771;28;20063;-66
2023/03/14 07:12:26;;;;;;;3.90;1.25;;;;;;;5.30;62.84;98500.97;5044352;28;20123;-65
2023/03/14 07:14:52;;;;;;;2.80;0.73;;;;;;;5.48;62.19;98518.09;5055468;28;20039;-64
2023/03/14 07:17:17;;;;;;;3.50;1.02;;;;;;;5.51;62.59;98523.09;5041198;28;20029;-67
2023/03/14 07:19:43;;;;;;;3.45;0.95;;;;;;;5.29;63.05;98539.00;5036396;28;20776;-69
2023/03/14 07:22:08;;;;;;;7.38;1.35;;;;;;;5.21;61.76;98591.22;5043425;28;20404;-67
2023/03/14 07:24:34;;;;;;;12.48;0.45;;;;;;;4.38;59.30;98605.84;5050701;28;20047;-70
2023/03/14 07:27:00;;;;;;;10.73;0.50;;;;;;;3.72;59.94;98621.22;5047479;28;20412;-70
2023/03/14 07:29:26;;;;;;;7.78;0.50;;;;;;;3.55;58.91;98635.72;5033589;28;20158;-69
2023/03/14 07:31:52;;;;;;;3.00;0.50;;;;;;;2.22;60.66;98657.03;5041442;28;20044;-68
2023/03/14 07:34:19;;;;;;;1.88;0.35;;;;;;;1.88;61.54;98661.78;5038691;28;20509;-67
2023/03/14 07:36:45;;;;;;;13.85;0.43;;;;;;;1.51;60.30;98678.69;5037305;28;20350;-69
2023/03/14 07:39:12;;;;;;;5.32;0.10;;;;;;;1.43;59.79;98687.56;5040091;28;20052;-70
2023/03/14 07:42:00;;;;;;;9.07;0.40;;;;;;;1.14;61.33;98704.06;5046973;28;20029;-71
2023/03/14 07:44:26;;;;;;;4.47;0.38;;;;;;;0.76;61.73;98703.66;5051000;28;20097;-69
2023/03/14 07:46:52;;;;;;;2.22;0.52;;;;;;;0.82;60.80;98729.19;5057070;28;20032;-68
2023/03/14 07:49:17;;;;;;;5.85;0.43;;;;;;;0.43;61.12;98742.44;5052912;28;20131;-66
2023/03/14 07:51:43;;;;;;;5.40;0.40;;;;;;;0.80;60.13;98766.97;5054701;28;20404;-67
2023/03/14 07:54:10;;;;;;;3.00;0.15;;;;;;;0.36;61.38;98782.09;5056138;28;20036;-66
2023/03/14 07:56:35;;;;;;;2.72;0.30;;;;;;;-0.05;61.99;98791.91;5053985;28;20085;-67
2023/03/14 07:59:01;;;;;;;0.32;0.10;;;;;;;0.26;60.57;98800.38;5056603;28;20032;-66
2023/03/14 08:01:26;;;;;;;5.75;0.10;;;;;;;0.04;60.78;98815.56;5054642;28;20021;-63
2023/03/14 08:03:52;;;;;;;4.07;0.28;;;;;;;-0.17;60.65;98829.91;5053432;28;20059;-66
2023/03/14 08:06:17;;;;;;;6.65;0.20;;;;;;;-0.32;60.69;98829.50;5054609;28;20061;-67
2023/03/14 08:08:43;;;;;;;1.70;0.10;;;;;;;-0.49;60.49;98845.34;5054439;28;20041;-64
2023/03/14 08:11:08;;;;;;;0.85;0.05;;;;;;;-0.85;61.90;98866.78;5027954;28;20048;-68
2023/03/14 08:13:36;;;;;;;4.80;0.10;;;;;;;-0.81;61.57;98872.69;5044623;28;20024;-66
2023/03/14 08:16:01;;;;;;;12.38;1.00;;;;;;;-0.07;60.02;98886.13;5055808;28;20044;-66
2023/03/14 08:18:27;;;;;;;3.10;0.63;;;;;;;-0.13;60.51;98893.09;5052972;28;20039;-64
2023/03/14 08:20:52;;;;;;;8.30;0.98;;;;;;;-0.40;61.63;98910.09;5053073;28;20036;-64
2023/03/14 08:23:18;;;;;;;5.40;1.08;;;;;;;-0.07;60.05;98911.81;5053026;28;20173;-65
2023/03/14 08:25:43;;;;;;;5.78;0.30;;;;;;;-0.04;59.87;98924.56;5052286;28;20048;-66
2023/03/14 08:28:09;;;;;;;3.10;0.40;;;;;;;-0.25;60.48;98931.97;5043950;28;20535;-66
2023/03/14 08:30:34;;;;;;;4.38;0.17;;;;;;;-0.29;60.20;98938.06;5051053;28;20117;-66
2023/03/14 08:33:00;;;;;;;2.85;0.38;;;;;;;-0.21;60.57;98935.28;5055162;28;20029;-66
2023/03/14 08:35:26;;;;;;;3.85;0.10;;;;;;;-0.09;60.85;98937.53;5039008;28;20044;-67
2023/03/14 08:37:52;;;;;;;6.28;1.10;;;;;;;0.08;60.35;98939.66;5053285;28;20036;-67
2023/03/14 08:40:18;;;;;;;4.80;0.10;;;;;;;0.04;60.97;98953.44;5054394;28;20343;-67
2023/03/14 08:42:47;;;;;;;2.55;0.68;;;;;;;0.25;60.70;98944.28;5052757;28;20040;-67
2023/03/14 08:45:16;;;;;;;2.60;0.10;;;;;;;0.27;60.33;98957.94;5054264;28;20040;-65
2023/03/14 08:47:43;;;;;;;1.00;0.10;;;;;;;0.58;60.16;98963.03;5053427;28;20760;-66
2023/03/14 08:50:09;;;;;;;2.90;0.03;;;;;;;0.52;61.29;98982.94;5055209;28;20125;-66
2023/03/14 08:52:37;;;;;;;3.90;0.10;;;;;;;0.48;60.79;99003.59;5051237;28;20032;-66
2023/03/14 08:55:04;;;;;;;8.38;0.30;;;;;;;0.40;60.31;99015.00;5052046;28;20758;-65
2023/03/14 08:57:29;;;;;;;2.47;0.20;;;;;;;0.59;59.96;99011.03;5052509;28;20047;-65
2023/03/14 08:59:56;;;;;;;0.43;0.00;;;;;;;0.24;61.19;99005.13;5050980;28;20063;-66
2023/03/14 09:02:23;;;;;;;1.00;0.10;;;;;;;0.50;59.76;99018.97;5050410;28;20036;-66
2023/03/14 09:04:53;;;;;;;11.65;0.32;;;;;;;1.04;58.93;99035.44;5049633;28;20046;-65
2023/03/14 09:07:19;;;;;;;3.42;0.20;;;;;;;0.72;59.85;99042.34;5052635;28;20049;-66
2023/03/14 09:09:45;;;;;;;5.85;0.30;;;;;;;1.22;59.59;99049.47;5049915;28;20067;-66
2023/03/14 09:12:11;;;;;;;0.70;0.03;;;;;;;1.82;58.03;99048.44;5052906;28;20158;-66
2023/03/14 09:14:36;;;;;;;2.10;0.10;;;;;;;1.85;57.43;99053.50;5044893;28;20173;-66
2023/03/14 09:17:03;;;;;;;2.45;0.38;;;;;;;1.75;57.36;99052.09;5059333;28;20470;-68
2023/03/14 09:19:29;;;;;;;3.88;0.40;;;;;;;2.13;55.08;99058.56;5056344;28;20059;-67
2023/03/14 09:21:54;;;;;;;6.82;0.40;;;;;;;2.62;54.91;99070.63;5052225;28;20778;-70
2023/03/14 09:24:20;;;;;;;5.15;0.22;;;;;;;2.91;53.82;99067.84;5048462;28;20078;-65
2023/03/14 09:26:46;;;;;;;2.45;0.57;;;;;;;3.01;53.40;99085.56;5048273;28;20667;-66
2023/03/14 09:29:11;;;;;;;10.23;1.05;;;;;;;2.81;52.70;99092.28;5047448;28;20044;-66
2023/03/14 09:31:37;;;;;;;8.73;0.60;;;;;;;2.62;52.85;99112.72;5043776;28;20036;-67
2023/03/14 09:34:02;;;;;;;5.90;0.68;;;;;;;2.80;53.33;99105.22;5048634;28;20064;-66
2023/03/14 09:36:28;;;;;;;5.47;0.30;;;;;;;2.74;52.99;99117.47;5047723;28;20408;-65
2023/03/14 09:38:53;;;;;;;3.70;0.60;;;;;;;3.07;52.36;99127.47;5047009;28;20039;-67
2023/03/14 09:41:30;;;;;;;10.35;0.50;;;;;;;2.89;52.16;99130.69;5047628;28;20035;-67
2023/03/14 09:44:02;;;;;;;8.52;0.57;;;;;;;3.46;51.83;99126.88;5046597;28;20474;-69
2023/03/14 09:46:30;;;;;;;3.92;0.43;;;;;;;3.35;51.08;99147.97;5032525;28;20039;-66
2023/03/14 09:48:56;;;;;;;16.20;1.35;;;;;;;3.83;49.82;99151.31;5046789;28;20039;-66
2023/03/14 09:51:24;;;;;;;11.75;1.35;;;;;;;4.38;49.15;99149.03;5045549;28;20060;-67
2023/03/14 09:53:51;;;;;;;4.72;0.50;;;;;;;4.02;49.45;99147.06;5045280;28;20492;-66
2023/03/14 09:56:24;;;;;;;15.88;1.40;;;;;;;4.86;47.97;99156.53;5046282;28;20075;-67
2023/03/14 09:59:03;;;;;;;10.05;1.20;;;;;;;4.93;47.99;99166.59;5045959;28;20036;-67
2023/03/14 10:01:31;;;;;;;15.15;1.45;;;;;;;5.03;47.58;99177.38;5045643;28;20037;-67
2023/03/14 10:04:01;;;;;;;23.65;3.28;;;;;;;4.96;45.50;99179.38;5046832;28;20036;-66
2023/03/14 10:06:29;;;;;;;10.68;1.40;;;;;;;4.29;46.99;99193.41;5036999;28;20579;-66
2023/03/14 10:08:56;;;;;;;8.80;1.90;;;;;;;4.18;48.28;99204.16;5047261;28;20052;-67
2023/03/14 10:11:23;;;;;;;15.35;1.55;;;;;;;4.09;47.61;99211.47;5049254;28;20066;-67
2023/03/14 10:13:48;;;;;;;8.90;0.68;;;;;;;3.86;48.08;99210.63;5050777;28;20035;-68
2023/03/14 10:16:13;;;;;;;11.95;1.10;;;;;;;4.26;48.66;99223.72;5049180;28;20440;-67
2023/03/14 10:18:44;;;;;;;14.25;1.73;;;;;;;4.10;47.69;99228.69;5045946;28;20552;-66
2023/03/14 10:21:30;;;;;;;9.68;2.42;;;;;;;3.83;49.08;99246.06;5048389;28;20058;-66
2023/03/14 10:24:08;;;;;;;12.00;1.02;;;;;;;3.39;49.55;99264.91;5047939;28;20044;-64
2023/03/14 10:26:34;;;;;;;9.57;1.85;;;;;;;3.50;49.66;99267.94;5049659;28;20033;-66
2023/03/14 10:29:10;;;;;;;21.48;1.77;;;;;;;3.99;48.95;99273.88;5050531;28;20030;-68
2023/03/14 10:31:54;;;;;;;17.33;2.40;;;;;;;4.13;48.15;99272.50;5051414;28;20134;-67
2023/03/14 10:34:30;;;;;;;17.52;1.85;;;;;;;4.76;47.14;99288.09;5050687;28;20036;-68
2023/03/14 10:37:06;;;;;;;11.82;0.95;;;;;;;4.46;45.80;99292.78;5052361;28;20051;-68
2023/03/14 10:39:45;;;;;;;7.15;0.90;;;;;;;4.88;45.48;99302.28;5053335;28;20041;-68
2023/03/14 10:42:31;;;;;;;11.40;0.95;;;;;;;3.76;43.25;99317.81;5043633;28;20042;-72
2023/03/14 10:45:22;;;;;;;4.93;0.57;;;;;;;3.71;43.37;99332.66;5050019;28;20039;-68
2023/03/14 10:47:49;;;;;;;12.50;1.17;;;;;;;3.99;42.45;99342.84;5041153;28;20033;-68
2023/03/14 10:50:25;;;;;;;17.65;1.30;;;;;;;3.90;42.45;99350.94;5053580;28;20040;-66
2023/03/14 10:52:52;;;;;;;12.43;1.52;;;;;;;4.12;41.37;99353.53;5050620;28;20040;-67
2023/03/14 10:55:18;;;;;;;6.10;0.77;;;;;;;3.90;41.83;99367.28;5052482;28;20516;-67
2023/03/14 10:57:44;;;;;;;7.55;1.40;;;;;;;3.81;41.53;99370.19;5053200;28;20036;-69
2023/03/14 11:00:18;;;;;;;11.93;1.05;;;;;;;3.68;39.67;99389.63;5053469;28;20032;-67
2023/03/14 11:03:03;;;;;;;7.88;0.68;;;;;;;3.98;40.06;99388.53;5050352;28;20043;-68
2023/03/14 11:05:38;;;;;;;10.88;0.77;;;;;;;4.28;40.19;99390.88;5053092;28;20132;-69
2023/03/14 11:08:23;;;;;;;11.45;0.52;;;;;;;4.95;38.13;99402.97;5051204;28;20090;-68
2023/03/14 11:10:53;;;;;;;6.50;0.32;;;;;;;4.94;38.72;99410.78;5050402;28;20052;-68
2023/03/14 11:13:30;;;;;;;12.00;0.82;;;;;;;4.53;37.63;99423.59;5051310;28;20515;-69
2023/03/14 11:16:04;;;;;;;8.55;0.73;;;;;;;4.35;36.43;99427.72;5049888;28;20297;-67
2023/03/14 11:18:57;;;;;;;6.15;0.63;;;;;;;4.49;35.98;99440.97;5053178;28;20682;-67
2023/03/14 11:21:49;;;;;;;10.65;1.33;;;;;;;5.04;34.89;99450.97;5051141;28;20040;-68
2023/03/14 11:24:30;;;;;;;3.95;0.60;;;;;;;4.82;35.25;99459.53;5052219;28;20207;-69
2023/03/14 11:27:05;;;;;;;4.50;0.40;;;;;;;4.96;34.80;99461.63;5051339;28;20059;-68
2023/03/14 11:29:46;;;;;;;13.43;0.77;;;;;;;5.36;33.44;99477.31;5050395;28;20061;-65
2023/03/14 11:32:43;;;;;;;7.88;0.93;;;;;;;5.71;33.58;99480.22;5053543;28;20105;-67
2023/03/14 11:35:33;;;;;;;2.15;0.22;;;;;;;5.11;32.44;99495.59;5051634;28;20032;-66
2023/03/14 11:38:30;;;;;;;3.72;0.52;;;;;;;5.18;31.80;99497.88;5051763;28;20039;-66
2023/03/14 11:40:58;;;;;;;4.85;0.30;;;;;;;5.93;31.25;99493.13;5049655;28;20070;-67
2023/03/14 11:43:34;;;;;;;2.70;0.20;;;;;;;5.94;31.74;99495.63;5051332;28;20047;-68
2023/03/14 11:46:09;;;;;;;6.45;0.40;;;;;;;5.40;31.32;99516.00;5050191;28;20137;-66
2023/03/14 11:48:50;;;;;;;8.40;0.43;;;;;;;5.36;32.54;99529.13;5049925;28;20250;-68
2023/03/14 11:51:24;;;;;;;1.60;0.30;;;;;;;4.89;33.12;99532.66;5050757;28;20040;-67
2023/03/14 11:54:03;;;;;;;10.20;0.47;;;;;;;4.60;34.05;99536.31;5049814;28;20503;-67
2023/03/14 11:57:00;;;;;;;11.35;0.40;;;;;;;4.25;35.60;99545.31;5031519;28;20544;-66